sensor_id;sensor_type;location;lat;lon;timestamp;temperature;humidity
21121;DHT22;12519;43.318;21.898;2023-07-13T00:04:09;27.2;85.0
21121;DHT22;12519;43.318;21.898;2023-07-13T00:08:46;27.0;85.0
21121;DHT22;12519;43.318;21.898;2023-07-13T00:13:23;27.0;85.0
21121;DHT22;12519;43.318;21.898;2023-07-13T00:17:59;27.0;85.0
21121;DHT22;12519;43.318;21.898;2023-07-13T00:22:37;27.0;85.0
21121;DHT22;12519;43.318;21.898;2023-07-13T00:27:14;27.0;85.0
21121;DHT22;12519;43.318;21.898;2023-07-13T00:31:51;27.0;85.0
21121;DHT22;12519;43.318;21.898;2023-07-13T00:36:27;27.0;85.0
21121;DHT22;12519;43.318;21.898;2023-07-13T00:41:05;27.0;85.0
21121;DHT22;12519;43.318;21.898;2023-07-13T00:46:46;27.0;85.0
21121;DHT22;12519;43.318;21.898;2023-07-13T00:51:40;26.9;85.0
21121;DHT22;12519;43.318;21.898;2023-07-13T00:56:19;26.9;85.0
21121;DHT22;12519;43.318;21.898;2023-07-13T01:00:56;27.0;85.0
21121;DHT22;12519;43.318;21.898;2023-07-13T01:05:36;27.0;85.0
21121;DHT22;12519;43.318;21.898;2023-07-13T01:10:15;27.0;84.0
21121;DHT22;12519;43.318;21.898;2023-07-13T01:15:02;27.0;84.0
21121;DHT22;12519;43.318;21.898;2023-07-13T01:20:12;27.0;84.0
21121;DHT22;12519;43.318;21.898;2023-07-13T01:24:49;27.0;84.0
21121;DHT22;12519;43.318;21.898;2023-07-13T01:38:42;26.8;84.0
21121;DHT22;12519;43.318;21.898;2023-07-13T01:43:20;26.8;84.0
21121;DHT22;12519;43.318;21.898;2023-07-13T01:47:58;26.8;84.0
21121;DHT22;12519;43.318;21.898;2023-07-13T01:52:34;26.8;84.0
21121;DHT22;12519;43.318;21.898;2023-07-13T01:57:11;26.8;84.0
21121;DHT22;12519;43.318;21.898;2023-07-13T02:01:48;26.8;84.0
21121;DHT22;12519;43.318;21.898;2023-07-13T02:06:24;26.8;84.0
21121;DHT22;12519;43.318;21.898;2023-07-13T02:20:16;26.7;85.0
21121;DHT22;12519;43.318;21.898;2023-07-13T02:24:53;26.7;85.0
21121;DHT22;12519;43.318;21.898;2023-07-13T02:29:30;26.7;85.0
21121;DHT22;12519;43.318;21.898;2023-07-13T02:34:07;26.7;85.0
21121;DHT22;12519;43.318;21.898;2023-07-13T02:38:44;26.6;86.0
21121;DHT22;12519;43.318;21.898;2023-07-13T02:43:21;26.6;86.0
21121;DHT22;12519;43.318;21.898;2023-07-13T02:47:58;26.4;86.0
21121;DHT22;12519;43.318;21.898;2023-07-13T02:52:35;26.4;86.0
21121;DHT22;12519;43.318;21.898;2023-07-13T02:57:11;26.4;86.0
21121;DHT22;12519;43.318;21.898;2023-07-13T03:01:48;26.4;86.0
21121;DHT22;12519;43.318;21.898;2023-07-13T03:06:25;26.4;86.0
21121;DHT22;12519;43.318;21.898;2023-07-13T03:39:00;26.0;86.0
21121;DHT22;12519;43.318;21.898;2023-07-13T03:43:37;26.0;86.0
21121;DHT22;12519;43.318;21.898;2023-07-13T03:48:15;26.0;86.0
21121;DHT22;12519;43.318;21.898;2023-07-13T03:52:52;26.0;86.0
21121;DHT22;12519;43.318;21.898;2023-07-13T03:57:29;26.0;86.0
21121;DHT22;12519;43.318;21.898;2023-07-13T04:02:07;26.0;86.0
21121;DHT22;12519;43.318;21.898;2023-07-13T04:06:44;26.0;86.0
21121;DHT22;12519;43.318;21.898;2023-07-13T04:11:31;26.1;86.0
21121;DHT22;12519;43.318;21.898;2023-07-13T04:16:09;26.1;86.0
21121;DHT22;12519;43.318;21.898;2023-07-13T04:20:50;26.0;86.0
21121;DHT22;12519;43.318;21.898;2023-07-13T04:25:28;26.0;86.0
21121;DHT22;12519;43.318;21.898;2023-07-13T04:30:10;25.9;87.0
21121;DHT22;12519;43.318;21.898;2023-07-13T04:34:47;25.9;87.0
21121;DHT22;12519;43.318;21.898;2023-07-13T04:39:23;25.8;87.0
21121;DHT22;12519;43.318;21.898;2023-07-13T04:44:00;25.8;87.0
21121;DHT22;12519;43.318;21.898;2023-07-13T04:48:37;25.6;87.0
21121;DHT22;12519;43.318;21.898;2023-07-13T04:53:15;25.6;87.0
21121;DHT22;12519;43.318;21.898;2023-07-13T04:57:51;25.6;87.0
21121;DHT22;12519;43.318;21.898;2023-07-13T05:02:28;25.6;87.0
21121;DHT22;12519;43.318;21.898;2023-07-13T05:07:06;25.6;87.0
21121;DHT22;12519;43.318;21.898;2023-07-13T05:39:32;27.3;84.0
21121;DHT22;12519;43.318;21.898;2023-07-13T05:44:09;27.3;84.0
21121;DHT22;12519;43.318;21.898;2023-07-13T05:48:46;27.3;84.0
21121;DHT22;12519;43.318;21.898;2023-07-13T05:53:22;27.3;84.0
21121;DHT22;12519;43.318;21.898;2023-07-13T05:58:01;27.3;84.0
21121;DHT22;12519;43.318;21.898;2023-07-13T06:02:38;27.4;84.0
21121;DHT22;12519;43.318;21.898;2023-07-13T06:07:15;27.4;84.0
21121;DHT22;12519;43.318;21.898;2023-07-13T06:11:51;27.5;83.0
21121;DHT22;12519;43.318;21.898;2023-07-13T06:16:27;27.5;83.0
21121;DHT22;12519;43.318;21.898;2023-07-13T06:21:13;27.5;83.0
21121;DHT22;12519;43.318;21.898;2023-07-13T06:25:59;27.5;83.0
21121;DHT22;12519;43.318;21.898;2023-07-13T06:30:38;27.5;83.0
21121;DHT22;12519;43.318;21.898;2023-07-13T06:35:16;27.5;83.0
21121;DHT22;12519;43.318;21.898;2023-07-13T06:39:53;27.6;83.0
21121;DHT22;12519;43.318;21.898;2023-07-13T06:44:30;27.6;83.0
21121;DHT22;12519;43.318;21.898;2023-07-13T06:49:09;27.6;83.0
21121;DHT22;12519;43.318;21.898;2023-07-13T06:53:46;27.6;83.0
21121;DHT22;12519;43.318;21.898;2023-07-13T06:58:24;27.6;83.0
21121;DHT22;12519;43.318;21.898;2023-07-13T07:03:01;27.7;83.0
21121;DHT22;12519;43.318;21.898;2023-07-13T07:07:39;27.7;83.0
21121;DHT22;12519;43.318;21.898;2023-07-13T07:12:15;27.8;82.0
21121;DHT22;12519;43.318;21.898;2023-07-13T07:16:52;27.8;82.0
21121;DHT22;12519;43.318;21.898;2023-07-13T07:21:28;28.3;82.0
21121;DHT22;12519;43.318;21.898;2023-07-13T07:26:05;28.3;82.0
21121;DHT22;12519;43.318;21.898;2023-07-13T07:30:43;28.8;82.0
21121;DHT22;12519;43.318;21.898;2023-07-13T07:35:19;28.8;82.0
21121;DHT22;12519;43.318;21.898;2023-07-13T07:39:55;29.2;80.0
21121;DHT22;12519;43.318;21.898;2023-07-13T07:44:33;29.2;80.0
21121;DHT22;12519;43.318;21.898;2023-07-13T07:49:10;29.7;79.0
21121;DHT22;12519;43.318;21.898;2023-07-13T07:53:48;29.7;79.0
21121;DHT22;12519;43.318;21.898;2023-07-13T07:58:24;29.7;79.0
21121;DHT22;12519;43.318;21.898;2023-07-13T08:03:02;29.7;79.0
21121;DHT22;12519;43.318;21.898;2023-07-13T08:07:40;29.7;79.0
21121;DHT22;12519;43.318;21.898;2023-07-13T08:12:17;29.7;79.0
21121;DHT22;12519;43.318;21.898;2023-07-13T08:16:53;29.7;79.0
21121;DHT22;12519;43.318;21.898;2023-07-13T08:21:30;29.8;79.0
21121;DHT22;12519;43.318;21.898;2023-07-13T08:26:09;29.8;79.0
21121;DHT22;12519;43.318;21.898;2023-07-13T08:30:46;30.0;78.0
21121;DHT22;12519;43.318;21.898;2023-07-13T08:35:22;30.0;78.0
21121;DHT22;12519;43.318;21.898;2023-07-13T08:39:58;30.2;77.0
21121;DHT22;12519;43.318;21.898;2023-07-13T08:45:08;30.2;77.0
21121;DHT22;12519;43.318;21.898;2023-07-13T08:49:48;30.5;76.0
21121;DHT22;12519;43.318;21.898;2023-07-13T08:54:41;30.5;76.0
21121;DHT22;12519;43.318;21.898;2023-07-13T08:59:32;30.8;75.0
21121;DHT22;12519;43.318;21.898;2023-07-13T09:04:27;30.8;75.0
21121;DHT22;12519;43.318;21.898;2023-07-13T09:10:07;31.0;74.0
21121;DHT22;12519;43.318;21.898;2023-07-13T09:15:29;31.0;74.0
21121;DHT22;12519;43.318;21.898;2023-07-13T09:20:36;31.2;71.0
21121;DHT22;12519;43.318;21.898;2023-07-13T09:25:39;31.2;71.0
21121;DHT22;12519;43.318;21.898;2023-07-13T09:30:52;31.3;69.0
21121;DHT22;12519;43.318;21.898;2023-07-13T09:35:42;31.3;69.0
21121;DHT22;12519;43.318;21.898;2023-07-13T09:40:49;31.5;67.0
21121;DHT22;12519;43.318;21.898;2023-07-13T09:45:52;31.5;67.0
21121;DHT22;12519;43.318;21.898;2023-07-13T09:50:29;31.7;65.0
21121;DHT22;12519;43.318;21.898;2023-07-13T09:55:32;31.7;65.0
21121;DHT22;12519;43.318;21.898;2023-07-13T10:00:29;32.0;65.0
21121;DHT22;12519;43.318;21.898;2023-07-13T10:05:15;32.0;65.0
21121;DHT22;12519;43.318;21.898;2023-07-13T10:09:53;32.2;64.0
21121;DHT22;12519;43.318;21.898;2023-07-13T10:14:30;32.2;64.0
21121;DHT22;12519;43.318;21.898;2023-07-13T10:19:26;32.2;64.0
21121;DHT22;12519;43.318;21.898;2023-07-13T10:24:23;32.2;64.0
21121;DHT22;12519;43.318;21.898;2023-07-13T10:29:16;32.3;63.0
21121;DHT22;12519;43.318;21.898;2023-07-13T10:33:56;32.3;63.0
21121;DHT22;12519;43.318;21.898;2023-07-13T10:38:34;32.3;63.0
21121;DHT22;12519;43.318;21.898;2023-07-13T10:43:35;32.4;63.0
21121;DHT22;12519;43.318;21.898;2023-07-13T10:48:23;32.4;63.0
21121;DHT22;12519;43.318;21.898;2023-07-13T10:53:28;32.6;63.0
21121;DHT22;12519;43.318;21.898;2023-07-13T10:58:23;32.6;63.0
21121;DHT22;12519;43.318;21.898;2023-07-13T11:03:22;32.8;62.0
21121;DHT22;12519;43.318;21.898;2023-07-13T11:08:33;32.8;62.0
21121;DHT22;12519;43.318;21.898;2023-07-13T11:14:00;33.0;61.0
21121;DHT22;12519;43.318;21.898;2023-07-13T11:18:37;33.0;61.0
21121;DHT22;12519;43.318;21.898;2023-07-13T11:23:31;33.2;60.0
21121;DHT22;12519;43.318;21.898;2023-07-13T11:28:27;33.2;60.0
21121;DHT22;12519;43.318;21.898;2023-07-13T11:33:22;33.4;60.0
21121;DHT22;12519;43.318;21.898;2023-07-13T11:38:00;33.4;60.0
21121;DHT22;12519;43.318;21.898;2023-07-13T11:42:38;33.6;60.0
21121;DHT22;12519;43.318;21.898;2023-07-13T11:47:23;33.6;60.0
21121;DHT22;12519;43.318;21.898;2023-07-13T11:52:02;33.8;60.0
21121;DHT22;12519;43.318;21.898;2023-07-13T11:56:42;33.8;60.0
21121;DHT22;12519;43.318;21.898;2023-07-13T12:01:31;33.8;60.0
21121;DHT22;12519;43.318;21.898;2023-07-13T12:06:31;33.8;60.0
21121;DHT22;12519;43.318;21.898;2023-07-13T12:11:18;33.9;60.0
21121;DHT22;12519;43.318;21.898;2023-07-13T12:15:57;33.9;60.0
21121;DHT22;12519;43.318;21.898;2023-07-13T12:20:39;34.0;60.0
21121;DHT22;12519;43.318;21.898;2023-07-13T12:25:19;34.0;60.0
21121;DHT22;12519;43.318;21.898;2023-07-13T12:30:31;34.0;60.0
21121;DHT22;12519;43.318;21.898;2023-07-13T12:35:18;34.0;60.0
21121;DHT22;12519;43.318;21.898;2023-07-13T12:39:54;34.1;60.0
21121;DHT22;12519;43.318;21.898;2023-07-13T12:44:32;34.1;60.0
21121;DHT22;12519;43.318;21.898;2023-07-13T12:49:15;34.2;60.0
21121;DHT22;12519;43.318;21.898;2023-07-13T12:54:17;34.2;60.0
21121;DHT22;12519;43.318;21.898;2023-07-13T12:59:04;34.2;60.0
21121;DHT22;12519;43.318;21.898;2023-07-13T13:03:52;34.4;61.0
21121;DHT22;12519;43.318;21.898;2023-07-13T13:08:35;34.4;61.0
21121;DHT22;12519;43.318;21.898;2023-07-13T13:13:12;34.5;61.0
21121;DHT22;12519;43.318;21.898;2023-07-13T13:17:49;34.5;61.0
21121;DHT22;12519;43.318;21.898;2023-07-13T13:22:25;34.6;61.0
21121;DHT22;12519;43.318;21.898;2023-07-13T13:27:04;34.6;61.0
21121;DHT22;12519;43.318;21.898;2023-07-13T13:31:43;34.7;61.0
21121;DHT22;12519;43.318;21.898;2023-07-13T13:36:23;34.7;61.0
21121;DHT22;12519;43.318;21.898;2023-07-13T13:40:59;34.7;61.0
21121;DHT22;12519;43.318;21.898;2023-07-13T13:45:36;34.7;61.0
21121;DHT22;12519;43.318;21.898;2023-07-13T13:50:22;34.6;61.0
21121;DHT22;12519;43.318;21.898;2023-07-13T13:54:58;34.6;61.0
21121;DHT22;12519;43.318;21.898;2023-07-13T13:59:34;34.7;61.0
21121;DHT22;12519;43.318;21.898;2023-07-13T14:04:22;34.7;61.0
21121;DHT22;12519;43.318;21.898;2023-07-13T14:09:00;34.7;61.0
21121;DHT22;12519;43.318;21.898;2023-07-13T14:13:50;34.8;62.0
21121;DHT22;12519;43.318;21.898;2023-07-13T14:18:27;34.8;62.0
21121;DHT22;12519;43.318;21.898;2023-07-13T14:23:04;34.8;62.0
21121;DHT22;12519;43.318;21.898;2023-07-13T14:27:51;34.8;62.0
21121;DHT22;12519;43.318;21.898;2023-07-13T14:32:55;34.7;62.0
21121;DHT22;12519;43.318;21.898;2023-07-13T14:37:32;34.7;62.0
21121;DHT22;12519;43.318;21.898;2023-07-13T14:42:11;34.8;62.0
21121;DHT22;12519;43.318;21.898;2023-07-13T14:46:51;34.8;62.0
21121;DHT22;12519;43.318;21.898;2023-07-13T14:51:34;34.8;62.0
21121;DHT22;12519;43.318;21.898;2023-07-13T14:56:12;34.8;62.0
21121;DHT22;12519;43.318;21.898;2023-07-13T15:00:50;34.6;63.0
21121;DHT22;12519;43.318;21.898;2023-07-13T15:05:32;34.6;63.0
21121;DHT22;12519;43.318;21.898;2023-07-13T15:10:22;34.5;63.0
21121;DHT22;12519;43.318;21.898;2023-07-13T15:15:08;34.5;63.0
21121;DHT22;12519;43.318;21.898;2023-07-13T15:19:45;34.5;63.0
21121;DHT22;12519;43.318;21.898;2023-07-13T15:24:21;34.5;63.0
21121;DHT22;12519;43.318;21.898;2023-07-13T15:28:58;34.5;63.0
21121;DHT22;12519;43.318;21.898;2023-07-13T15:33:34;34.5;64.0
21121;DHT22;12519;43.318;21.898;2023-07-13T15:38:23;34.5;64.0
21121;DHT22;12519;43.318;21.898;2023-07-13T15:43:00;34.4;64.0
21121;DHT22;12519;43.318;21.898;2023-07-13T15:47:36;34.4;64.0
21121;DHT22;12519;43.318;21.898;2023-07-13T15:52:24;34.3;64.0
21121;DHT22;12519;43.318;21.898;2023-07-13T15:57:03;34.3;64.0
21121;DHT22;12519;43.318;21.898;2023-07-13T16:01:45;34.2;65.0
21121;DHT22;12519;43.318;21.898;2023-07-13T16:06:34;34.2;65.0
21121;DHT22;12519;43.318;21.898;2023-07-13T16:11:25;34.1;65.0
21121;DHT22;12519;43.318;21.898;2023-07-13T16:16:12;34.1;65.0
21121;DHT22;12519;43.318;21.898;2023-07-13T16:20:50;34.1;65.0
21121;DHT22;12519;43.318;21.898;2023-07-13T16:25:27;34.1;65.0
21121;DHT22;12519;43.318;21.898;2023-07-13T16:30:20;34.1;66.0
21121;DHT22;12519;43.318;21.898;2023-07-13T16:34:59;34.1;66.0
21121;DHT22;12519;43.318;21.898;2023-07-13T16:39:35;34.1;66.0
21121;DHT22;12519;43.318;21.898;2023-07-13T16:44:20;34.0;67.0
21121;DHT22;12519;43.318;21.898;2023-07-13T16:48:57;34.0;67.0
21121;DHT22;12519;43.318;21.898;2023-07-13T16:53:34;34.0;67.0
21121;DHT22;12519;43.318;21.898;2023-07-13T16:58:10;34.0;67.0
21121;DHT22;12519;43.318;21.898;2023-07-13T17:02:48;33.8;68.0
21121;DHT22;12519;43.318;21.898;2023-07-13T17:07:26;33.8;68.0
21121;DHT22;12519;43.318;21.898;2023-07-13T17:12:07;33.6;68.0
21121;DHT22;12519;43.318;21.898;2023-07-13T17:16:52;33.6;68.0
21121;DHT22;12519;43.318;21.898;2023-07-13T17:21:32;33.5;68.0
21121;DHT22;12519;43.318;21.898;2023-07-13T17:26:10;33.5;68.0
21121;DHT22;12519;43.318;21.898;2023-07-13T17:30:55;33.4;67.0
21121;DHT22;12519;43.318;21.898;2023-07-13T17:35:38;33.4;67.0
21121;DHT22;12519;43.318;21.898;2023-07-13T17:40:16;33.2;68.0
21121;DHT22;12519;43.318;21.898;2023-07-13T17:44:54;33.2;68.0
21121;DHT22;12519;43.318;21.898;2023-07-13T17:49:32;33.2;68.0
21121;DHT22;12519;43.318;21.898;2023-07-13T17:54:15;32.9;69.0
21121;DHT22;12519;43.318;21.898;2023-07-13T17:58:53;32.9;69.0
21121;DHT22;12519;43.318;21.898;2023-07-13T18:03:30;32.6;70.0
21121;DHT22;12519;43.318;21.898;2023-07-13T18:08:30;32.6;70.0
21121;DHT22;12519;43.318;21.898;2023-07-13T18:13:07;32.4;71.0
21121;DHT22;12519;43.318;21.898;2023-07-13T18:17:51;32.4;71.0
21121;DHT22;12519;43.318;21.898;2023-07-13T18:22:27;32.2;71.0
21121;DHT22;12519;43.318;21.898;2023-07-13T18:27:06;32.2;71.0
21121;DHT22;12519;43.318;21.898;2023-07-13T18:31:44;31.9;71.0
21121;DHT22;12519;43.318;21.898;2023-07-13T18:36:23;31.9;71.0
21121;DHT22;12519;43.318;21.898;2023-07-13T18:41:00;31.8;70.0
21121;DHT22;12519;43.318;21.898;2023-07-13T18:45:36;31.8;70.0
21121;DHT22;12519;43.318;21.898;2023-07-13T18:50:25;31.6;69.0
21121;DHT22;12519;43.318;21.898;2023-07-13T18:55:19;31.6;69.0
21121;DHT22;12519;43.318;21.898;2023-07-13T18:59:58;31.5;69.0
21121;DHT22;12519;43.318;21.898;2023-07-13T19:04:34;31.5;69.0
21121;DHT22;12519;43.318;21.898;2023-07-13T19:09:12;31.5;69.0
21121;DHT22;12519;43.318;21.898;2023-07-13T19:13:48;31.4;69.0
21121;DHT22;12519;43.318;21.898;2023-07-13T19:18:25;31.4;69.0
21121;DHT22;12519;43.318;21.898;2023-07-13T19:23:26;31.4;71.0
21121;DHT22;12519;43.318;21.898;2023-07-13T19:28:38;31.4;71.0
21121;DHT22;12519;43.318;21.898;2023-07-13T19:33:17;31.3;72.0
21121;DHT22;12519;43.318;21.898;2023-07-13T19:37:54;31.3;72.0
21121;DHT22;12519;43.318;21.898;2023-07-13T19:42:32;31.2;73.0
21121;DHT22;12519;43.318;21.898;2023-07-13T19:47:14;31.2;73.0
21121;DHT22;12519;43.318;21.898;2023-07-13T19:51:54;31.0;74.0
21121;DHT22;12519;43.318;21.898;2023-07-13T19:56:30;31.0;74.0
21121;DHT22;12519;43.318;21.898;2023-07-13T20:01:07;30.8;73.0
21121;DHT22;12519;43.318;21.898;2023-07-13T20:05:44;30.8;73.0
21121;DHT22;12519;43.318;21.898;2023-07-13T20:10:29;30.6;73.0
21121;DHT22;12519;43.318;21.898;2023-07-13T20:15:19;30.6;73.0
21121;DHT22;12519;43.318;21.898;2023-07-13T20:20:31;30.5;73.0
21121;DHT22;12519;43.318;21.898;2023-07-13T20:25:25;30.5;73.0
21121;DHT22;12519;43.318;21.898;2023-07-13T20:30:11;30.4;73.0
21121;DHT22;12519;43.318;21.898;2023-07-13T20:34:49;30.4;73.0
21121;DHT22;12519;43.318;21.898;2023-07-13T20:39:25;30.4;73.0
21121;DHT22;12519;43.318;21.898;2023-07-13T20:44:03;30.3;74.0
21121;DHT22;12519;43.318;21.898;2023-07-13T20:48:45;30.3;74.0
21121;DHT22;12519;43.318;21.898;2023-07-13T20:53:21;30.2;74.0
21121;DHT22;12519;43.318;21.898;2023-07-13T20:57:58;30.2;74.0
21121;DHT22;12519;43.318;21.898;2023-07-13T21:02:34;30.1;75.0
21121;DHT22;12519;43.318;21.898;2023-07-13T21:07:21;30.1;75.0
21121;DHT22;12519;43.318;21.898;2023-07-13T21:11:59;30.0;75.0
21121;DHT22;12519;43.318;21.898;2023-07-13T21:16:36;30.0;75.0
21121;DHT22;12519;43.318;21.898;2023-07-13T21:21:24;29.8;75.0
21121;DHT22;12519;43.318;21.898;2023-07-13T21:26:08;29.8;75.0
21121;DHT22;12519;43.318;21.898;2023-07-13T21:30:46;29.7;75.0
21121;DHT22;12519;43.318;21.898;2023-07-13T21:35:38;29.7;75.0
21121;DHT22;12519;43.318;21.898;2023-07-13T21:40:23;29.6;75.0
21121;DHT22;12519;43.318;21.898;2023-07-13T21:45:25;29.6;75.0
21121;DHT22;12519;43.318;21.898;2023-07-13T21:50:07;29.6;75.0
21121;DHT22;12519;43.318;21.898;2023-07-13T21:54:45;29.6;75.0
21121;DHT22;12519;43.318;21.898;2023-07-13T21:59:28;29.6;75.0
21121;DHT22;12519;43.318;21.898;2023-07-13T22:04:22;29.6;75.0
21121;DHT22;12519;43.318;21.898;2023-07-13T22:08:59;29.6;75.0
21121;DHT22;12519;43.318;21.898;2023-07-13T22:13:36;29.5;75.0
21121;DHT22;12519;43.318;21.898;2023-07-13T22:18:22;29.5;75.0
21121;DHT22;12519;43.318;21.898;2023-07-13T22:22:58;29.4;75.0
21121;DHT22;12519;43.318;21.898;2023-07-13T22:27:36;29.4;75.0
21121;DHT22;12519;43.318;21.898;2023-07-13T22:32:13;29.4;75.0
21121;DHT22;12519;43.318;21.898;2023-07-13T22:36:50;29.2;76.0
21121;DHT22;12519;43.318;21.898;2023-07-13T22:41:27;29.2;76.0
21121;DHT22;12519;43.318;21.898;2023-07-13T22:46:05;29.2;76.0
21121;DHT22;12519;43.318;21.898;2023-07-13T22:50:58;29.1;76.0
21121;DHT22;12519;43.318;21.898;2023-07-13T22:55:35;29.1;76.0
21121;DHT22;12519;43.318;21.898;2023-07-13T23:00:19;29.0;77.0
21121;DHT22;12519;43.318;21.898;2023-07-13T23:04:56;29.0;77.0
21121;DHT22;12519;43.318;21.898;2023-07-13T23:09:33;29.0;77.0
21121;DHT22;12519;43.318;21.898;2023-07-13T23:14:10;29.0;77.0
21121;DHT22;12519;43.318;21.898;2023-07-13T23:18:50;28.9;78.0
21121;DHT22;12519;43.318;21.898;2023-07-13T23:23:27;28.9;78.0
21121;DHT22;12519;43.318;21.898;2023-07-13T23:28:04;28.8;78.0
21121;DHT22;12519;43.318;21.898;2023-07-13T23:32:41;28.8;78.0
21121;DHT22;12519;43.318;21.898;2023-07-13T23:37:17;28.6;79.0
21121;DHT22;12519;43.318;21.898;2023-07-13T23:41:54;28.6;79.0
21121;DHT22;12519;43.318;21.898;2023-07-13T23:46:49;28.4;79.0
21121;DHT22;12519;43.318;21.898;2023-07-13T23:51:30;28.4;79.0
21121;DHT22;12519;43.318;21.898;2023-07-13T23:56:23;28.4;79.0
